createdAt,value
2022-08-07T00:00:39.921Z,26.39
2022-08-07T00:03:08.934Z,26.33
2022-08-07T00:05:37.594Z,26.25
2022-08-07T00:08:07.776Z,26.15
2022-08-07T00:10:36.462Z,26.08
2022-08-07T00:13:25.908Z,26.07
2022-08-07T00:15:56.784Z,26.06
2022-08-07T00:18:26.602Z,26.06
2022-08-07T00:21:02.020Z,26.13
2022-08-07T00:23:32.319Z,26.25
2022-08-07T00:26:10.844Z,26.33
2022-08-07T00:28:46.022Z,26.47
2022-08-07T00:31:37.330Z,26.48
2022-08-07T00:34:08.741Z,26.46
2022-08-07T00:36:38.565Z,26.36
2022-08-07T00:39:16.113Z,26.24
2022-08-07T00:41:53.763Z,26.14
2022-08-07T00:44:30.734Z,26.06
2022-08-07T00:47:02.850Z,25.98
2022-08-07T00:50:21.132Z,25.96
2022-08-07T00:52:20.132Z,25.83
2022-08-07T00:54:53.940Z,25.80
2022-08-07T00:57:23.472Z,25.83
2022-08-07T00:59:54.321Z,25.81
2022-08-07T01:02:28.820Z,25.80
2022-08-07T01:04:59.227Z,25.81
2022-08-07T01:07:28.463Z,25.88
2022-08-07T01:10:06.537Z,25.92
2022-08-07T01:12:53.516Z,26.05
2022-08-07T01:16:00.603Z,26.05
2022-08-07T01:18:17.055Z,26.10
2022-08-07T01:20:59.768Z,26.06
2022-08-07T01:23:38.052Z,26.08
2022-08-07T01:26:12.055Z,26.14
2022-08-07T01:28:41.435Z,26.14
2022-08-07T01:31:15.393Z,26.14
2022-08-07T01:33:55.091Z,26.12
2022-08-07T01:36:33.381Z,26.07
2022-08-07T01:39:09.648Z,25.96
2022-08-07T01:41:40.804Z,25.86
2022-08-07T01:44:27.759Z,25.76
2022-08-07T01:46:55.972Z,25.66
2022-08-07T01:49:24.335Z,25.54
2022-08-07T01:52:02.503Z,25.49
2022-08-07T01:54:41.129Z,25.40
2022-08-07T01:57:24.212Z,25.31
2022-08-07T01:59:57.062Z,25.19
2022-08-07T02:02:32.668Z,25.05
2022-08-07T02:05:43.495Z,24.95
2022-08-07T02:08:13.998Z,24.89
2022-08-07T02:10:44.813Z,24.82
2022-08-07T02:13:47.006Z,24.75
2022-08-07T02:16:13.047Z,24.65
2022-08-07T02:18:46.991Z,24.58
2022-08-07T02:21:18.120Z,24.50
2022-08-07T02:23:47.850Z,24.39
2022-08-07T02:26:32.989Z,24.30
2022-08-07T02:29:03.555Z,24.19
2022-08-07T02:31:33.422Z,24.08
2022-08-07T02:34:11.583Z,24.05
2022-08-07T02:36:46.531Z,24.08
2022-08-07T02:39:43.935Z,24.11
2022-08-07T02:42:10.326Z,24.09
2022-08-07T02:44:48.489Z,24.06
2022-08-07T02:47:19.666Z,24.02
2022-08-07T02:49:57.930Z,23.97
2022-08-07T02:52:32.604Z,23.88
2022-08-07T02:55:04.274Z,23.81
2022-08-07T02:57:38.488Z,23.74
2022-08-07T03:00:11.221Z,23.70
2022-08-07T03:02:54.429Z,23.63
2022-08-07T03:05:24.579Z,23.54
2022-08-07T03:08:07.067Z,23.45
2022-08-07T03:10:40.941Z,23.38
2022-08-07T03:13:19.711Z,23.31
2022-08-07T03:15:56.375Z,23.26
2022-08-07T03:18:34.626Z,23.22
2022-08-07T03:21:08.889Z,23.19
2022-08-07T03:24:20.998Z,23.13
2022-08-07T03:26:32.589Z,23.06
2022-08-07T03:29:11.219Z,23.02
2022-08-07T03:31:46.441Z,22.99
2022-08-07T03:34:22.525Z,22.94
2022-08-07T03:36:53.359Z,22.89
2022-08-07T03:39:46.169Z,22.87
2022-08-07T03:42:13.313Z,22.85
2022-08-07T03:44:47.093Z,22.83
2022-08-07T03:47:22.614Z,22.83
2022-08-07T03:49:52.707Z,22.83
2022-08-07T03:52:26.738Z,22.84
2022-08-07T03:54:57.067Z,22.86
2022-08-07T03:58:33.676Z,22.87
2022-08-07T04:00:20.964Z,22.90
2022-08-07T04:02:49.572Z,22.94
2022-08-07T04:05:24.169Z,22.99
2022-08-07T04:08:07.421Z,23.11
2022-08-07T04:10:39.703Z,23.21
2022-08-07T04:13:15.107Z,23.31
2022-08-07T04:15:45.943Z,23.43
2022-08-07T04:18:57.520Z,23.52
2022-08-07T04:21:07.335Z,23.64
2022-08-07T04:23:43.741Z,23.77
2022-08-07T04:26:28.367Z,23.91
2022-08-07T04:28:57.086Z,24.01
2022-08-07T04:31:38.762Z,24.11
2022-08-07T04:34:17.361Z,24.24
2022-08-07T04:36:55.580Z,24.38
2022-08-07T04:39:26.021Z,24.51
2022-08-07T04:41:54.334Z,24.69
2022-08-07T04:44:22.827Z,24.80
2022-08-07T04:47:07.695Z,24.90
2022-08-07T04:49:58.001Z,25.03
2022-08-07T04:52:35.673Z,25.13
2022-08-07T04:58:07.644Z,25.23
2022-08-07T04:58:42.276Z,25.38
2022-08-07T05:01:06.232Z,25.47
2022-08-07T05:04:06.550Z,25.56
2022-08-07T05:06:51.588Z,25.64
2022-08-07T05:09:45.938Z,25.70
2022-08-07T05:12:26.819Z,25.79
2022-08-07T05:15:04.246Z,25.88
2022-08-07T05:17:50.887Z,25.98
2022-08-07T05:20:28.171Z,26.12
2022-08-07T05:23:05.198Z,26.25
2022-08-07T05:25:54.405Z,26.34
2022-08-07T05:28:26.785Z,26.51
2022-08-07T05:30:58.781Z,26.65
2022-08-07T05:33:29.904Z,26.66
2022-08-07T05:36:00.462Z,26.81
2022-08-07T05:38:59.823Z,26.97
2022-08-07T05:41:21.885Z,27.14
2022-08-07T05:44:08.400Z,27.21
2022-08-07T05:46:42.939Z,27.33
2022-08-07T05:49:14.281Z,27.39
2022-08-07T05:51:46.415Z,27.46
2022-08-07T05:54:31.340Z,27.58
2022-08-07T05:57:04.324Z,27.63
2022-08-07T05:59:38.907Z,27.64
2022-08-07T06:02:28.779Z,27.79
2022-08-07T06:05:03.401Z,27.94
2022-08-07T06:08:13.748Z,28.04
2022-08-07T06:10:23.111Z,28.18
2022-08-07T06:12:51.884Z,28.29
2022-08-07T06:15:21.550Z,28.43
2022-08-07T06:17:53.806Z,28.52
2022-08-07T06:20:25.648Z,28.68
2022-08-07T06:23:46.825Z,28.75
2022-08-07T06:25:58.714Z,28.78
2022-08-07T06:28:28.437Z,28.90
2022-08-07T06:30:58.320Z,29.06
2022-08-07T06:33:29.751Z,29.23
2022-08-07T06:36:11.901Z,29.29
2022-08-07T06:38:51.215Z,29.45
2022-08-07T06:42:02.304Z,29.54
2022-08-07T06:44:24.913Z,29.59
2022-08-07T06:47:10.075Z,29.67
2022-08-07T06:49:52.203Z,29.80
2022-08-07T06:52:35.626Z,29.92
2022-08-07T06:55:33.376Z,29.99
2022-08-07T06:58:01.786Z,30.03
2022-08-07T07:00:33.950Z,30.08
2022-08-07T07:03:10.729Z,30.20
2022-08-07T07:06:04.395Z,30.37
2022-08-07T07:08:29.908Z,30.53
2022-08-07T07:11:13.148Z,30.65
2022-08-07T07:13:57.409Z,30.71
2022-08-07T07:16:45.081Z,30.81
2022-08-07T07:19:55.754Z,30.93
2022-08-07T07:22:34.112Z,30.97
2022-08-07T07:25:02.889Z,31.05
2022-08-07T07:27:56.217Z,31.10
2022-08-07T07:30:40.126Z,31.16
2022-08-07T07:33:11.542Z,31.22
2022-08-07T07:35:54.402Z,31.25
2022-08-07T07:38:31.776Z,31.26
2022-08-07T07:41:08.838Z,31.18
2022-08-07T07:44:14.344Z,31.24
2022-08-07T07:46:36.619Z,31.38
2022-08-07T07:50:33.161Z,31.56
2022-08-07T07:52:13.033Z,31.66
2022-08-07T07:54:50.744Z,31.72
2022-08-07T07:57:44.052Z,31.71
2022-08-07T08:00:20.805Z,31.65
2022-08-07T08:03:05.819Z,31.58
2022-08-07T08:05:50.943Z,31.59
2022-08-07T08:08:34.281Z,31.66
2022-08-07T08:11:08.645Z,31.66
2022-08-07T08:13:53.109Z,31.57
2022-08-07T08:16:29.680Z,31.60
2022-08-07T08:19:00.543Z,31.66
2022-08-07T08:22:05.885Z,31.88
2022-08-07T08:25:18.776Z,32.10
2022-08-07T08:27:56.252Z,32.24
2022-08-07T08:30:26.693Z,32.29
2022-08-07T08:33:02.889Z,32.26
2022-08-07T08:35:39.040Z,32.28
2022-08-07T08:38:14.420Z,32.42
2022-08-07T08:40:50.220Z,32.55
2022-08-07T08:43:41.801Z,32.59
2022-08-07T08:46:17.809Z,32.60
2022-08-07T08:48:56.755Z,32.60
2022-08-07T08:52:13.215Z,32.46
2022-08-07T08:54:32.397Z,32.29
2022-08-07T08:57:09.291Z,32.38
2022-08-07T08:59:50.271Z,32.51
2022-08-07T09:02:36.601Z,32.56
2022-08-07T09:05:37.360Z,32.61
2022-08-07T09:08:24.299Z,32.53
2022-08-07T09:11:25.046Z,32.57
2022-08-07T09:14:12.244Z,32.64
2022-08-07T09:16:55.717Z,32.83
2022-08-07T09:19:53.302Z,32.93
2022-08-07T09:24:33.425Z,32.90
2022-08-07T09:25:44.384Z,32.85
2022-08-07T09:30:01.412Z,32.83
2022-08-07T09:31:38.446Z,33.06
2022-08-07T09:34:16.261Z,33.31
2022-08-07T09:36:52.855Z,33.49
2022-08-07T09:39:54.869Z,33.67
2022-08-07T09:42:35.871Z,33.91
2022-08-07T09:47:50.387Z,34.15
2022-08-07T09:48:19.202Z,34.31
2022-08-07T09:50:57.401Z,34.24
2022-08-07T09:53:41.412Z,34.03
2022-08-07T09:56:56.108Z,34.07
2022-08-07T09:59:46.455Z,34.29
2022-08-07T10:02:55.323Z,34.50
2022-08-07T10:05:59.550Z,34.76
2022-08-07T10:08:59.009Z,34.97
2022-08-07T10:12:01.635Z,35.08
2022-08-07T10:15:00.525Z,35.19
2022-08-07T10:18:01.119Z,35.20
2022-08-07T10:20:41.011Z,35.25
2022-08-07T10:24:06.620Z,35.29
2022-08-07T10:26:51.814Z,35.49
2022-08-07T10:29:51.687Z,35.57
2022-08-07T10:32:53.261Z,35.48
2022-08-07T10:35:55.347Z,35.48
2022-08-07T10:38:48.128Z,35.63
2022-08-07T10:41:46.528Z,35.84
2022-08-07T10:44:33.733Z,36.04
2022-08-07T10:47:27.107Z,36.06
2022-08-07T10:50:15.250Z,36.10
2022-08-07T10:52:54.373Z,36.18
2022-08-07T10:55:38.107Z,36.26
2022-08-07T10:58:25.019Z,36.32
2022-08-07T11:01:23.951Z,36.45
2022-08-07T11:04:11.027Z,36.35
2022-08-07T11:06:55.811Z,36.27
2022-08-07T11:10:07.358Z,36.26
2022-08-07T11:12:31.997Z,36.39
2022-08-07T11:15:09.576Z,36.22
2022-08-07T11:17:53.760Z,36.04
2022-08-07T11:20:26.104Z,36.20
2022-08-07T11:23:03.773Z,36.44
2022-08-07T11:25:47.794Z,36.33
2022-08-07T11:28:21.184Z,36.28
2022-08-07T11:30:59.185Z,36.20
2022-08-07T11:33:48.714Z,36.29
2022-08-07T11:36:40.880Z,36.37
2022-08-07T11:39:19.810Z,36.42
2022-08-07T11:42:01.490Z,36.39
2022-08-07T11:44:52.366Z,36.44
2022-08-07T11:47:38.938Z,36.42
2022-08-07T11:50:35.149Z,36.63
2022-08-07T11:53:22.048Z,36.62
2022-08-07T11:56:26.718Z,36.58
2022-08-07T12:00:08.196Z,36.65
2022-08-07T12:02:05.216Z,36.68
2022-08-07T12:05:03.184Z,36.58
2022-08-07T12:07:53.472Z,36.61
2022-08-07T12:10:36.182Z,36.70
2022-08-07T12:13:17.025Z,36.77
2022-08-07T12:16:06.153Z,36.74
2022-08-07T12:18:45.300Z,36.88
2022-08-07T12:21:55.200Z,36.83
2022-08-07T12:24:37.516Z,36.90
2022-08-07T12:27:15.792Z,37.12
2022-08-07T12:29:52.945Z,37.08
2022-08-07T12:32:26.553Z,37.04
2022-08-07T12:34:57.378Z,37.07
2022-08-07T12:37:28.289Z,37.26
2022-08-07T12:40:46.721Z,37.40
2022-08-07T12:43:12.370Z,37.62
2022-08-07T12:46:12.307Z,37.97
2022-08-07T12:48:55.602Z,38.44
2022-08-07T12:51:46.660Z,38.87
2022-08-07T12:54:38.511Z,38.81
2022-08-07T12:57:11.256Z,39.26
2022-08-07T12:59:54.642Z,39.58
2022-08-07T13:02:43.578Z,39.99
2022-08-07T13:06:03.553Z,40.67
2022-08-07T13:08:30.928Z,42.11
2022-08-07T13:11:09.851Z,43.46
2022-08-07T13:13:57.645Z,45.23
2022-08-07T13:16:37.302Z,47.34
2022-08-07T13:19:21.882Z,49.26
2022-08-07T13:22:05.133Z,50.94
2022-08-07T13:24:53.878Z,52.67
2022-08-07T13:28:05.896Z,54.21
2022-08-07T13:30:41.153Z,55.12
2022-08-07T13:34:14.399Z,54.87
2022-08-07T13:36:06.848Z,55.07
2022-08-07T13:38:41.948Z,55.66
2022-08-07T13:41:21.616Z,56.48
2022-08-07T13:43:55.982Z,57.44
2022-08-07T13:46:33.823Z,57.75
2022-08-07T13:49:08.880Z,57.57
2022-08-07T13:52:22.166Z,58.00
2022-08-07T13:54:49.255Z,58.49
2022-08-07T13:57:23.979Z,58.91
2022-08-07T13:59:55.784Z,57.99
2022-08-07T14:02:29.879Z,57.08
2022-08-07T14:05:10.929Z,55.68
2022-08-07T14:07:59.725Z,55.30
2022-08-07T14:10:42.124Z,55.95
2022-08-07T14:13:16.372Z,55.77
2022-08-07T14:15:51.435Z,54.34
2022-08-07T14:18:29.768Z,51.63
2022-08-07T14:21:08.378Z,51.54
2022-08-07T14:24:00.943Z,52.58
2022-08-07T14:26:37.254Z,54.03
2022-08-07T14:30:06.258Z,54.47
2022-08-07T14:32:02.915Z,53.21
2022-08-07T14:34:34.684Z,52.26
2022-08-07T14:37:17.734Z,51.76
2022-08-07T14:40:16.211Z,51.57
2022-08-07T14:43:55.757Z,51.12
2022-08-07T14:45:48.733Z,49.51
2022-08-07T14:48:21.292Z,47.82
2022-08-07T14:50:54.007Z,47.77
2022-08-07T14:54:08.661Z,48.37
2022-08-07T14:56:14.166Z,48.24
2022-08-07T14:58:54.112Z,48.96
2022-08-07T15:01:42.859Z,49.93
2022-08-07T15:04:18.358Z,49.95
2022-08-07T15:06:49.711Z,50.17
2022-08-07T15:13:05.805Z,50.27
2022-08-07T15:15:07.538Z,51.84
2022-08-07T15:25:15.778Z,54.34
2022-08-07T15:26:22.174Z,54.15
2022-08-07T15:34:50.407Z,51.60
2022-08-07T15:38:04.876Z,51.12
2022-08-07T15:43:53.572Z,49.46
2022-08-07T15:46:31.542Z,48.38
2022-08-07T15:49:14.567Z,48.88
2022-08-07T15:54:34.030Z,49.09
2022-08-07T15:57:05.938Z,49.37
2022-08-07T15:59:39.188Z,49.46
2022-08-07T16:02:15.721Z,48.39
2022-08-07T16:04:44.618Z,46.98
2022-08-07T16:08:29.189Z,45.91
2022-08-07T16:10:14.808Z,45.01
2022-08-07T16:13:04.860Z,44.23
2022-08-07T16:15:58.059Z,43.91
2022-08-07T16:18:50.796Z,43.03
2022-08-07T16:22:03.218Z,42.01
2022-08-07T16:24:34.585Z,40.86
2022-08-07T16:27:17.880Z,39.93
2022-08-07T16:30:30.707Z,38.99
2022-08-07T16:34:06.733Z,38.29
2022-08-07T16:36:20.144Z,37.63
2022-08-07T16:39:05.060Z,37.16
2022-08-07T16:42:00.869Z,36.74
2022-08-07T16:45:15.051Z,36.33
2022-08-07T16:48:27.796Z,35.84
2022-08-07T16:51:20.975Z,35.53
2022-08-07T16:54:19.758Z,35.17
2022-08-07T16:57:01.594Z,34.89
2022-08-07T16:59:46.700Z,34.62
2022-08-07T17:02:53.517Z,34.39
2022-08-07T17:06:19.758Z,34.18
2022-08-07T17:09:08.861Z,33.97
2022-08-07T17:12:03.934Z,33.75
2022-08-07T17:14:32.967Z,33.57
2022-08-07T17:17:05.940Z,33.42
2022-08-07T17:20:02.966Z,33.25
2022-08-07T17:22:37.764Z,33.13
2022-08-07T17:25:17.380Z,33.00
2022-08-07T17:27:58.896Z,32.86
2022-08-07T17:30:32.163Z,32.78
2022-08-07T17:34:09.732Z,32.48
2022-08-07T17:36:19.906Z,32.39
2022-08-07T17:39:01.606Z,32.37
2022-08-07T17:42:02.700Z,32.32
2022-08-07T17:44:46.872Z,32.20
2022-08-07T17:47:38.343Z,32.20
2022-08-07T17:50:19.350Z,32.16
2022-08-07T17:52:59.069Z,32.13
2022-08-07T17:56:00.680Z,31.82
2022-08-07T17:58:36.194Z,31.49
2022-08-07T18:01:21.187Z,30.80
2022-08-07T18:04:07.405Z,30.53
2022-08-07T18:06:43.167Z,30.08
2022-08-07T18:09:17.731Z,29.91
2022-08-07T18:12:27.804Z,29.52
2022-08-07T18:15:08.820Z,29.14
2022-08-07T18:18:44.900Z,28.82
2022-08-07T18:21:08.706Z,28.34
2022-08-07T18:23:43.321Z,27.79
2022-08-07T18:26:22.913Z,27.58
2022-08-07T18:30:08.343Z,27.13
2022-08-07T18:32:17.724Z,26.92
2022-08-07T18:35:09.107Z,26.93
2022-08-07T18:38:57.068Z,26.89
2022-08-07T18:41:09.138Z,26.68
2022-08-07T18:43:57.657Z,26.56
2022-08-07T18:46:42.780Z,26.62
2022-08-07T18:50:31.819Z,26.69
2022-08-07T18:52:40.961Z,26.77
2022-08-07T18:55:43.628Z,26.74
2022-08-07T18:58:26.754Z,26.80
2022-08-07T19:01:05.908Z,26.77
2022-08-07T19:03:49.720Z,26.73
2022-08-07T19:06:33.817Z,26.76
2022-08-07T19:09:57.128Z,26.75
2022-08-07T19:12:18.010Z,26.73
2022-08-07T19:16:02.936Z,26.80
2022-08-07T19:18:02.862Z,26.83
2022-08-07T19:21:09.008Z,26.89
2022-08-07T19:23:57.939Z,26.90
2022-08-07T19:27:01.926Z,26.92
2022-08-07T19:31:05.414Z,26.96
2022-08-07T19:32:42.341Z,26.95
2022-08-07T19:35:11.819Z,26.95
2022-08-07T19:37:56.591Z,26.99
2022-08-07T19:40:30.981Z,27.04
2022-08-07T19:43:02.573Z,27.09
2022-08-07T19:46:08.216Z,27.16
2022-08-07T19:48:43.027Z,27.27
2022-08-07T19:51:20.460Z,27.28
2022-08-07T19:54:33.670Z,27.24
2022-08-07T19:57:59.756Z,27.25
2022-08-07T19:59:41.522Z,27.26
2022-08-07T20:02:19.622Z,27.28
2022-08-07T20:05:00.509Z,27.26
2022-08-07T20:07:46.056Z,27.20
2022-08-07T20:10:36.069Z,27.12
2022-08-07T20:13:15.731Z,27.00
2022-08-07T20:15:51.648Z,26.89
2022-08-07T20:18:32.537Z,26.89
2022-08-07T20:21:22.050Z,26.83
2022-08-07T20:23:57.941Z,26.78
2022-08-07T20:26:45.230Z,26.80
2022-08-07T20:29:49.129Z,26.79
2022-08-07T20:32:23.221Z,26.71
2022-08-07T20:34:54.135Z,26.67
2022-08-07T20:37:24.399Z,26.60
2022-08-07T20:40:02.043Z,26.53
2022-08-07T20:42:35.484Z,26.46
2022-08-07T20:45:33.770Z,26.40
2022-08-07T20:47:58.308Z,26.35
2022-08-07T20:50:30.647Z,26.30
2022-08-07T20:52:59.713Z,26.26
2022-08-07T20:55:32.170Z,26.20
2022-08-07T20:58:11.826Z,26.16
2022-08-07T21:00:48.373Z,26.09
2022-08-07T21:03:25.726Z,26.04
2022-08-07T21:06:00.895Z,26.03
2022-08-07T21:08:37.929Z,26.04
2022-08-07T21:11:12.049Z,26.02
2022-08-07T21:14:16.370Z,26.00
2022-08-07T21:16:56.415Z,25.99
2022-08-07T21:19:32.238Z,25.98
2022-08-07T21:22:19.185Z,25.96
2022-08-07T21:25:04.837Z,25.93
2022-08-07T21:28:02.055Z,25.93
2022-08-07T21:30:41.904Z,25.91
2022-08-07T21:33:17.817Z,25.83
2022-08-07T21:36:05.843Z,25.72
2022-08-07T21:38:54.507Z,25.63
2022-08-07T21:41:38.372Z,25.62
2022-08-07T21:44:31.185Z,25.68
2022-08-07T21:47:12.447Z,25.73
2022-08-07T21:50:02.098Z,25.77
2022-08-07T21:52:45.159Z,25.73
2022-08-07T21:55:30.241Z,25.71
2022-08-07T21:58:12.175Z,25.70
2022-08-07T22:00:54.165Z,25.66
2022-08-07T22:03:30.868Z,25.63
2022-08-07T22:06:30.761Z,25.62
2022-08-07T22:09:04.091Z,25.62
2022-08-07T22:12:05.509Z,25.63
2022-08-07T22:14:34.797Z,25.67
2022-08-07T22:17:06.108Z,25.70
2022-08-07T22:19:42.418Z,25.73
2022-08-07T22:22:21.175Z,25.76
2022-08-07T22:25:08.515Z,25.76
2022-08-07T22:28:20.049Z,25.72
2022-08-07T22:30:39.514Z,25.66
2022-08-07T22:33:15.088Z,25.61
2022-08-07T22:35:52.384Z,25.52
2022-08-07T22:38:33.986Z,25.44
2022-08-07T22:41:09.935Z,25.35
2022-08-07T22:43:43.707Z,25.27
2022-08-07T22:47:02.755Z,25.20
2022-08-07T22:49:39.473Z,25.13
2022-08-07T22:52:39.982Z,25.00
2022-08-07T22:55:43.140Z,24.98
2022-08-07T22:58:47.720Z,25.00
2022-08-07T23:02:00.419Z,25.07
2022-08-07T23:04:56.916Z,25.09
2022-08-07T23:07:44.846Z,25.13
2022-08-07T23:10:36.343Z,25.17
2022-08-07T23:13:48.653Z,25.21
2022-08-07T23:16:48.310Z,25.25
2022-08-07T23:19:51.286Z,25.22
2022-08-07T23:22:40.968Z,25.13
2022-08-07T23:25:33.597Z,25.09
2022-08-07T23:28:29.126Z,25.13
2022-08-07T23:31:18.762Z,25.20
2022-08-07T23:34:38.243Z,25.26
2022-08-07T23:38:00.726Z,25.31
2022-08-07T23:40:37.050Z,25.33
2022-08-07T23:43:52.613Z,25.35
2022-08-07T23:46:45.020Z,25.39
2022-08-07T23:49:50.788Z,25.39
2022-08-07T23:53:06.335Z,25.39
2022-08-07T23:55:53.420Z,25.35
2022-08-07T23:58:26.417Z,25.31
